sensor_id;sensor_type;location;lat;lon;timestamp;pressure;altitude;pressure_sealevel;temperature;humidity
51031;BME280;37058;41.442;23.240;2023-04-06T00:00:04;100354.38;;;5.92;66.60
51031;BME280;37058;41.442;23.240;2023-04-06T00:02:30;100358.16;;;5.91;66.92
51031;BME280;37058;41.442;23.240;2023-04-06T00:04:56;100353.56;;;5.91;65.24
51031;BME280;37058;41.442;23.240;2023-04-06T00:07:22;100352.13;;;5.89;65.07
51031;BME280;37058;41.442;23.240;2023-04-06T00:09:48;100342.09;;;5.89;65.93
51031;BME280;37058;41.442;23.240;2023-04-06T00:12:14;100346.69;;;5.89;65.95
51031;BME280;37058;41.442;23.240;2023-04-06T00:14:40;100353.75;;;5.96;65.65
51031;BME280;37058;41.442;23.240;2023-04-06T00:17:06;100347.06;;;5.92;65.99
51031;BME280;37058;41.442;23.240;2023-04-06T00:19:32;100354.38;;;5.92;65.68
51031;BME280;37058;41.442;23.240;2023-04-06T00:21:58;100354.50;;;5.78;65.59
51031;BME280;37058;41.442;23.240;2023-04-06T00:24:24;100350.66;;;5.68;66.57
51031;BME280;37058;41.442;23.240;2023-04-06T00:26:50;100341.31;;;5.63;66.66
51031;BME280;37058;41.442;23.240;2023-04-06T00:29:15;100337.75;;;5.63;67.29
51031;BME280;37058;41.442;23.240;2023-04-06T00:31:41;100341.97;;;5.59;67.41
51031;BME280;37058;41.442;23.240;2023-04-06T00:34:08;100336.38;;;5.54;68.11
51031;BME280;37058;41.442;23.240;2023-04-06T00:36:34;100341.41;;;5.50;68.48
51031;BME280;37058;41.442;23.240;2023-04-06T00:38:59;100340.16;;;5.53;68.36
51031;BME280;37058;41.442;23.240;2023-04-06T00:41:26;100335.59;;;5.47;67.92
51031;BME280;37058;41.442;23.240;2023-04-06T00:43:53;100336.97;;;5.31;68.45
51031;BME280;37058;41.442;23.240;2023-04-06T00:46:18;100337.38;;;5.03;69.86
51031;BME280;37058;41.442;23.240;2023-04-06T00:48:44;100339.88;;;5.04;69.67
51031;BME280;37058;41.442;23.240;2023-04-06T00:51:10;100334.50;;;4.97;70.15
51031;BME280;37058;41.442;23.240;2023-04-06T00:53:36;100342.00;;;4.95;70.18
51031;BME280;37058;41.442;23.240;2023-04-06T00:56:02;100340.34;;;4.94;69.67
51031;BME280;37058;41.442;23.240;2023-04-06T00:58:28;100336.03;;;4.87;70.34
51031;BME280;37058;41.442;23.240;2023-04-06T01:00:54;100341.72;;;4.78;70.82
51031;BME280;37058;41.442;23.240;2023-04-06T01:03:20;100330.66;;;4.73;71.28
51031;BME280;37058;41.442;23.240;2023-04-06T01:05:46;100333.63;;;4.72;71.30
51031;BME280;37058;41.442;23.240;2023-04-06T01:08:12;100331.94;;;4.71;72.16
51031;BME280;37058;41.442;23.240;2023-04-06T01:10:38;100327.16;;;4.73;71.98
51031;BME280;37058;41.442;23.240;2023-04-06T01:13:04;100319.84;;;4.73;72.44
51031;BME280;37058;41.442;23.240;2023-04-06T01:15:30;100321.81;;;4.60;72.18
51031;BME280;37058;41.442;23.240;2023-04-06T01:17:57;100318.75;;;4.43;72.50
51031;BME280;37058;41.442;23.240;2023-04-06T01:20:23;100315.22;;;4.42;73.38
51031;BME280;37058;41.442;23.240;2023-04-06T01:22:49;100316.91;;;4.43;74.05
51031;BME280;37058;41.442;23.240;2023-04-06T01:25:15;100313.59;;;4.41;73.57
51031;BME280;37058;41.442;23.240;2023-04-06T01:27:41;100312.78;;;4.34;73.93
51031;BME280;37058;41.442;23.240;2023-04-06T01:30:07;100314.03;;;4.31;73.19
51031;BME280;37058;41.442;23.240;2023-04-06T01:32:33;100312.78;;;4.34;74.05
51031;BME280;37058;41.442;23.240;2023-04-06T01:34:59;100312.34;;;4.37;73.53
51031;BME280;37058;41.442;23.240;2023-04-06T01:37:25;100307.13;;;4.42;73.51
51031;BME280;37058;41.442;23.240;2023-04-06T01:39:51;100308.16;;;4.41;73.92
51031;BME280;37058;41.442;23.240;2023-04-06T01:42:18;100302.06;;;4.52;72.76
51031;BME280;37058;41.442;23.240;2023-04-06T01:44:44;100306.91;;;4.44;73.23
51031;BME280;37058;41.442;23.240;2023-04-06T01:47:10;100305.72;;;4.33;73.31
51031;BME280;37058;41.442;23.240;2023-04-06T01:49:35;100300.94;;;4.28;73.82
51031;BME280;37058;41.442;23.240;2023-04-06T01:52:01;100298.66;;;4.25;73.93
51031;BME280;37058;41.442;23.240;2023-04-06T01:54:27;100300.34;;;4.20;74.00
51031;BME280;37058;41.442;23.240;2023-04-06T01:56:53;100298.25;;;4.22;74.03
51031;BME280;37058;41.442;23.240;2023-04-06T01:59:19;100305.53;;;4.21;73.96
51031;BME280;37058;41.442;23.240;2023-04-06T02:01:45;100301.59;;;4.24;73.16
51031;BME280;37058;41.442;23.240;2023-04-06T02:04:11;100300.75;;;4.23;73.17
51031;BME280;37058;41.442;23.240;2023-04-06T02:06:36;100299.06;;;4.29;73.49
51031;BME280;37058;41.442;23.240;2023-04-06T02:09:02;100293.66;;;4.29;73.11
51031;BME280;37058;41.442;23.240;2023-04-06T02:11:28;100294.47;;;4.29;72.65
51031;BME280;37058;41.442;23.240;2023-04-06T02:13:55;100289.97;;;4.17;72.42
51031;BME280;37058;41.442;23.240;2023-04-06T02:16:21;100294.16;;;4.06;72.94
51031;BME280;37058;41.442;23.240;2023-04-06T02:18:48;100290.00;;;4.03;73.23
51031;BME280;37058;41.442;23.240;2023-04-06T02:21:15;100298.31;;;4.08;72.85
51031;BME280;37058;41.442;23.240;2023-04-06T02:23:48;100289.38;;;4.08;73.48
51031;BME280;37058;41.442;23.240;2023-04-06T02:26:15;100287.25;;;4.10;73.49
51031;BME280;37058;41.442;23.240;2023-04-06T02:28:41;100290.63;;;4.05;74.31
51031;BME280;37058;41.442;23.240;2023-04-06T02:31:08;100298.75;;;4.05;73.83
51031;BME280;37058;41.442;23.240;2023-04-06T02:33:34;100285.44;;;4.04;73.75
51031;BME280;37058;41.442;23.240;2023-04-06T02:35:59;100291.66;;;4.04;73.85
51031;BME280;37058;41.442;23.240;2023-04-06T02:38:25;100287.50;;;4.08;73.86
51031;BME280;37058;41.442;23.240;2023-04-06T02:40:51;100289.59;;;4.00;73.92
51031;BME280;37058;41.442;23.240;2023-04-06T02:43:18;100291.75;;;3.78;75.45
51031;BME280;37058;41.442;23.240;2023-04-06T02:45:44;100293.19;;;3.74;75.79
51031;BME280;37058;41.442;23.240;2023-04-06T02:48:10;100294.66;;;3.69;76.01
51031;BME280;37058;41.442;23.240;2023-04-06T02:50:36;100295.69;;;3.68;76.21
51031;BME280;37058;41.442;23.240;2023-04-06T02:53:02;100285.94;;;3.67;76.67
51031;BME280;37058;41.442;23.240;2023-04-06T02:55:28;100284.50;;;3.58;76.56
51031;BME280;37058;41.442;23.240;2023-04-06T02:57:53;100292.78;;;3.63;76.51
51031;BME280;37058;41.442;23.240;2023-04-06T03:00:19;100293.00;;;3.68;77.11
51031;BME280;37058;41.442;23.240;2023-04-06T03:02:46;100290.94;;;3.71;76.54
51031;BME280;37058;41.442;23.240;2023-04-06T03:05:12;100288.22;;;3.71;76.33
51031;BME280;37058;41.442;23.240;2023-04-06T03:07:38;100284.22;;;3.80;76.05
51031;BME280;37058;41.442;23.240;2023-04-06T03:10:04;100288.00;;;3.79;75.77
51031;BME280;37058;41.442;23.240;2023-04-06T03:12:30;100285.47;;;3.77;75.51
51031;BME280;37058;41.442;23.240;2023-04-06T03:14:56;100286.31;;;3.84;75.64
51031;BME280;37058;41.442;23.240;2023-04-06T03:17:22;100289.63;;;3.86;75.15
51031;BME280;37058;41.442;23.240;2023-04-06T03:19:48;100280.47;;;3.94;75.04
51031;BME280;37058;41.442;23.240;2023-04-06T03:22:14;100287.94;;;3.99;74.83
51031;BME280;37058;41.442;23.240;2023-04-06T03:24:40;100284.19;;;4.00;75.13
51031;BME280;37058;41.442;23.240;2023-04-06T03:27:05;100274.63;;;3.97;75.21
51031;BME280;37058;41.442;23.240;2023-04-06T03:29:32;100282.16;;;3.88;75.65
51031;BME280;37058;41.442;23.240;2023-04-06T03:31:57;100274.91;;;3.82;75.99
51031;BME280;37058;41.442;23.240;2023-04-06T03:34:23;100274.06;;;3.82;75.27
51031;BME280;37058;41.442;23.240;2023-04-06T03:36:49;100269.28;;;3.84;74.09
51031;BME280;37058;41.442;23.240;2023-04-06T03:39:16;100281.53;;;3.93;75.33
51031;BME280;37058;41.442;23.240;2023-04-06T03:41:41;100272.41;;;3.87;75.22
51031;BME280;37058;41.442;23.240;2023-04-06T03:44:08;100275.94;;;3.75;75.20
51031;BME280;37058;41.442;23.240;2023-04-06T03:46:34;100274.09;;;3.68;73.90
51031;BME280;37058;41.442;23.240;2023-04-06T03:49:00;100274.72;;;3.71;74.32
51031;BME280;37058;41.442;23.240;2023-04-06T03:51:27;100277.59;;;3.82;74.21
51031;BME280;37058;41.442;23.240;2023-04-06T03:53:53;100281.31;;;3.88;74.11
51031;BME280;37058;41.442;23.240;2023-04-06T03:56:19;100272.34;;;3.94;74.59
51031;BME280;37058;41.442;23.240;2023-04-06T03:58:45;100275.88;;;4.01;74.23
51031;BME280;37058;41.442;23.240;2023-04-06T04:01:14;100272.31;;;4.07;73.88
51031;BME280;37058;41.442;23.240;2023-04-06T04:03:41;100280.84;;;4.11;73.66
51031;BME280;37058;41.442;23.240;2023-04-06T04:06:06;100287.47;;;4.15;73.10
51031;BME280;37058;41.442;23.240;2023-04-06T04:08:32;100278.34;;;4.09;73.51
51031;BME280;37058;41.442;23.240;2023-04-06T04:10:58;100284.59;;;4.03;73.73
51031;BME280;37058;41.442;23.240;2023-04-06T04:13:24;100286.88;;;4.06;73.98
51031;BME280;37058;41.442;23.240;2023-04-06T04:15:50;100288.31;;;4.09;74.22
51031;BME280;37058;41.442;23.240;2023-04-06T04:18:16;100284.16;;;4.13;73.54
51031;BME280;37058;41.442;23.240;2023-04-06T04:20:42;100285.59;;;4.16;74.02
51031;BME280;37058;41.442;23.240;2023-04-06T04:23:08;100286.38;;;4.23;74.09
51031;BME280;37058;41.442;23.240;2023-04-06T04:25:33;100286.31;;;4.43;73.85
51031;BME280;37058;41.442;23.240;2023-04-06T04:27:59;100288.56;;;4.52;73.06
51031;BME280;37058;41.442;23.240;2023-04-06T04:30:25;100293.69;;;4.67;72.62
51031;BME280;37058;41.442;23.240;2023-04-06T04:32:51;100286.22;;;4.94;71.50
51031;BME280;37058;41.442;23.240;2023-04-06T04:35:17;100297.28;;;5.68;68.79
51031;BME280;37058;41.442;23.240;2023-04-06T04:37:43;100302.41;;;6.68;65.25
51031;BME280;37058;41.442;23.240;2023-04-06T04:40:10;100289.06;;;6.97;64.04
51031;BME280;37058;41.442;23.240;2023-04-06T04:42:36;100299.13;;;7.20;62.45
51031;BME280;37058;41.442;23.240;2023-04-06T04:45:02;100308.69;;;7.11;62.51
51031;BME280;37058;41.442;23.240;2023-04-06T04:47:28;100302.03;;;6.95;62.59
51031;BME280;37058;41.442;23.240;2023-04-06T04:49:54;100302.28;;;7.05;62.07
51031;BME280;37058;41.442;23.240;2023-04-06T04:52:20;100304.41;;;7.80;60.25
51031;BME280;37058;41.442;23.240;2023-04-06T04:54:46;100300.13;;;7.96;59.01
51031;BME280;37058;41.442;23.240;2023-04-06T04:57:12;100312.53;;;7.69;59.16
51031;BME280;37058;41.442;23.240;2023-04-06T04:59:38;100308.97;;;7.56;59.54
51031;BME280;37058;41.442;23.240;2023-04-06T05:02:04;100310.13;;;7.25;60.40
51031;BME280;37058;41.442;23.240;2023-04-06T05:04:30;100308.59;;;7.18;59.39
51031;BME280;37058;41.442;23.240;2023-04-06T05:07:07;100310.34;;;7.24;60.16
51031;BME280;37058;41.442;23.240;2023-04-06T05:09:33;100310.16;;;7.49;59.89
51031;BME280;37058;41.442;23.240;2023-04-06T05:12:00;100313.16;;;7.82;58.66
51031;BME280;37058;41.442;23.240;2023-04-06T05:14:27;100308.50;;;8.07;58.22
51031;BME280;37058;41.442;23.240;2023-04-06T05:16:53;100308.56;;;8.35;57.43
51031;BME280;37058;41.442;23.240;2023-04-06T05:19:20;100307.91;;;8.68;56.17
51031;BME280;37058;41.442;23.240;2023-04-06T05:21:46;100309.81;;;8.97;53.99
51031;BME280;37058;41.442;23.240;2023-04-06T05:24:12;100318.00;;;9.30;53.36
51031;BME280;37058;41.442;23.240;2023-04-06T05:26:38;100309.81;;;9.64;52.30
51031;BME280;37058;41.442;23.240;2023-04-06T05:29:04;100307.53;;;9.95;51.73
51031;BME280;37058;41.442;23.240;2023-04-06T05:31:30;100313.94;;;10.23;50.97
51031;BME280;37058;41.442;23.240;2023-04-06T05:33:56;100306.94;;;10.49;50.56
51031;BME280;37058;41.442;23.240;2023-04-06T05:36:22;100307.53;;;10.78;49.92
51031;BME280;37058;41.442;23.240;2023-04-06T05:38:48;100303.47;;;11.07;49.03
51031;BME280;37058;41.442;23.240;2023-04-06T05:41:16;100297.91;;;11.24;48.06
51031;BME280;37058;41.442;23.240;2023-04-06T05:43:42;100295.28;;;11.77;47.66
51031;BME280;37058;41.442;23.240;2023-04-06T05:46:08;100293.91;;;12.22;46.12
51031;BME280;37058;41.442;23.240;2023-04-06T05:48:33;100301.22;;;12.59;45.18
51031;BME280;37058;41.442;23.240;2023-04-06T05:50:59;100299.94;;;12.92;44.44
51031;BME280;37058;41.442;23.240;2023-04-06T05:53:26;100297.22;;;13.18;43.89
51031;BME280;37058;41.442;23.240;2023-04-06T05:55:54;100311.53;;;13.46;43.08
51031;BME280;37058;41.442;23.240;2023-04-06T05:58:20;100294.25;;;13.55;42.28
51031;BME280;37058;41.442;23.240;2023-04-06T06:00:46;100304.94;;;13.36;42.17
51031;BME280;37058;41.442;23.240;2023-04-06T06:03:13;100301.94;;;13.33;42.12
51031;BME280;37058;41.442;23.240;2023-04-06T06:05:39;100298.59;;;13.26;42.03
51031;BME280;37058;41.442;23.240;2023-04-06T06:08:05;100294.16;;;12.89;41.93
51031;BME280;37058;41.442;23.240;2023-04-06T06:10:31;100297.97;;;12.72;41.71
51031;BME280;37058;41.442;23.240;2023-04-06T06:12:56;100296.44;;;12.29;42.74
51031;BME280;37058;41.442;23.240;2023-04-06T06:15:22;100298.81;;;12.15;43.07
51031;BME280;37058;41.442;23.240;2023-04-06T06:17:48;100299.19;;;11.86;43.44
51031;BME280;37058;41.442;23.240;2023-04-06T06:20:14;100290.78;;;11.61;44.23
51031;BME280;37058;41.442;23.240;2023-04-06T06:22:40;100299.97;;;11.12;44.04
51031;BME280;37058;41.442;23.240;2023-04-06T06:25:06;100285.00;;;10.93;45.35
51031;BME280;37058;41.442;23.240;2023-04-06T06:27:32;100291.03;;;10.68;45.65
51031;BME280;37058;41.442;23.240;2023-04-06T06:29:58;100294.94;;;10.50;47.58
51031;BME280;37058;41.442;23.240;2023-04-06T06:32:24;100296.19;;;10.42;47.76
51031;BME280;37058;41.442;23.240;2023-04-06T06:34:50;100295.56;;;10.35;47.95
51031;BME280;37058;41.442;23.240;2023-04-06T06:37:16;100300.31;;;10.45;47.21
51031;BME280;37058;41.442;23.240;2023-04-06T06:39:42;100299.69;;;10.37;46.85
51031;BME280;37058;41.442;23.240;2023-04-06T06:42:08;100296.38;;;10.13;48.11
51031;BME280;37058;41.442;23.240;2023-04-06T06:44:34;100298.47;;;10.50;46.93
51031;BME280;37058;41.442;23.240;2023-04-06T06:47:00;100291.19;;;13.26;41.29
51031;BME280;37058;41.442;23.240;2023-04-06T06:49:25;100297.41;;;15.28;37.53
51031;BME280;37058;41.442;23.240;2023-04-06T06:51:51;100288.25;;;19.69;30.49
51031;BME280;37058;41.442;23.240;2023-04-06T06:54:17;100285.47;;;21.41;27.58
51031;BME280;37058;41.442;23.240;2023-04-06T06:56:43;100282.50;;;23.75;24.97
51031;BME280;37058;41.442;23.240;2023-04-06T06:59:09;100277.09;;;23.57;24.77
51031;BME280;37058;41.442;23.240;2023-04-06T07:01:35;100271.09;;;19.89;27.53
51031;BME280;37058;41.442;23.240;2023-04-06T07:04:02;100268.88;;;17.77;30.19
51031;BME280;37058;41.442;23.240;2023-04-06T07:06:27;100272.84;;;16.00;32.69
51031;BME280;37058;41.442;23.240;2023-04-06T07:08:53;100273.31;;;15.15;35.09
51031;BME280;37058;41.442;23.240;2023-04-06T07:11:19;100277.88;;;14.90;35.68
51031;BME280;37058;41.442;23.240;2023-04-06T07:13:46;100279.06;;;14.74;35.18
51031;BME280;37058;41.442;23.240;2023-04-06T07:16:12;100272.88;;;14.38;35.66
51031;BME280;37058;41.442;23.240;2023-04-06T07:18:38;100276.06;;;13.95;37.53
51031;BME280;37058;41.442;23.240;2023-04-06T07:21:04;100271.50;;;13.34;37.27
51031;BME280;37058;41.442;23.240;2023-04-06T07:23:30;100274.72;;;13.21;38.77
51031;BME280;37058;41.442;23.240;2023-04-06T07:25:56;100272.53;;;13.23;38.83
51031;BME280;37058;41.442;23.240;2023-04-06T07:28:22;100270.59;;;13.13;38.14
51031;BME280;37058;41.442;23.240;2023-04-06T07:30:48;100262.13;;;13.05;39.62
51031;BME280;37058;41.442;23.240;2023-04-06T07:33:14;100258.00;;;12.92;39.87
51031;BME280;37058;41.442;23.240;2023-04-06T07:35:39;100253.84;;;12.74;39.58
51031;BME280;37058;41.442;23.240;2023-04-06T07:38:05;100255.75;;;12.73;39.86
51031;BME280;37058;41.442;23.240;2023-04-06T07:40:31;100248.09;;;12.75;40.20
51031;BME280;37058;41.442;23.240;2023-04-06T07:42:58;100247.81;;;12.67;39.59
51031;BME280;37058;41.442;23.240;2023-04-06T07:45:24;100247.47;;;12.53;41.30
51031;BME280;37058;41.442;23.240;2023-04-06T07:47:50;100249.13;;;12.49;41.47
51031;BME280;37058;41.442;23.240;2023-04-06T07:50:16;100249.13;;;12.54;40.29
51031;BME280;37058;41.442;23.240;2023-04-06T07:52:42;100248.03;;;12.55;40.33
51031;BME280;37058;41.442;23.240;2023-04-06T07:55:08;100236.00;;;12.56;40.74
51031;BME280;37058;41.442;23.240;2023-04-06T07:57:34;100237.09;;;12.60;40.69
51031;BME280;37058;41.442;23.240;2023-04-06T08:00:00;100233.81;;;12.68;40.26
51031;BME280;37058;41.442;23.240;2023-04-06T08:02:26;100234.38;;;12.65;39.10
51031;BME280;37058;41.442;23.240;2023-04-06T08:04:52;100224.78;;;12.73;39.94
51031;BME280;37058;41.442;23.240;2023-04-06T08:07:18;100230.00;;;12.69;40.66
51031;BME280;37058;41.442;23.240;2023-04-06T08:09:44;100216.56;;;12.68;40.41
51031;BME280;37058;41.442;23.240;2023-04-06T08:12:10;100223.97;;;12.83;39.26
51031;BME280;37058;41.442;23.240;2023-04-06T08:14:36;100228.09;;;12.75;39.05
51031;BME280;37058;41.442;23.240;2023-04-06T08:17:01;100211.06;;;12.63;38.30
51031;BME280;37058;41.442;23.240;2023-04-06T08:19:27;100218.41;;;12.31;39.87
51031;BME280;37058;41.442;23.240;2023-04-06T08:21:53;100213.66;;;12.11;40.38
51031;BME280;37058;41.442;23.240;2023-04-06T08:24:19;100210.41;;;12.20;42.47
51031;BME280;37058;41.442;23.240;2023-04-06T08:26:45;100200.81;;;12.17;41.44
51031;BME280;37058;41.442;23.240;2023-04-06T08:29:11;100199.47;;;12.30;41.95
51031;BME280;37058;41.442;23.240;2023-04-06T08:31:37;100199.25;;;12.42;42.27
51031;BME280;37058;41.442;23.240;2023-04-06T08:34:04;100197.66;;;12.56;42.78
51031;BME280;37058;41.442;23.240;2023-04-06T08:36:33;100197.66;;;12.66;40.93
51031;BME280;37058;41.442;23.240;2023-04-06T08:39:00;100191.63;;;12.64;39.95
51031;BME280;37058;41.442;23.240;2023-04-06T08:41:27;100186.13;;;12.49;41.51
51031;BME280;37058;41.442;23.240;2023-04-06T08:44:00;100188.31;;;12.57;41.88
51031;BME280;37058;41.442;23.240;2023-04-06T08:46:28;100182.84;;;12.62;41.83
51031;BME280;37058;41.442;23.240;2023-04-06T08:48:59;100183.69;;;12.68;40.75
51031;BME280;37058;41.442;23.240;2023-04-06T08:51:27;100173.00;;;12.76;40.96
51031;BME280;37058;41.442;23.240;2023-04-06T08:53:55;100177.63;;;12.66;39.70
51031;BME280;37058;41.442;23.240;2023-04-06T08:56:22;100166.41;;;12.62;39.96
51031;BME280;37058;41.442;23.240;2023-04-06T08:58:49;100162.84;;;12.41;40.27
51031;BME280;37058;41.442;23.240;2023-04-06T09:01:20;100161.19;;;12.45;40.80
51031;BME280;37058;41.442;23.240;2023-04-06T09:03:47;100160.09;;;12.51;41.18
51031;BME280;37058;41.442;23.240;2023-04-06T09:06:14;100156.00;;;12.44;40.62
51031;BME280;37058;41.442;23.240;2023-04-06T09:08:41;100155.19;;;12.53;41.92
51031;BME280;37058;41.442;23.240;2023-04-06T09:11:08;100142.31;;;12.59;41.57
51031;BME280;37058;41.442;23.240;2023-04-06T09:13:55;100140.13;;;12.61;41.26
51031;BME280;37058;41.442;23.240;2023-04-06T09:16:22;100146.13;;;12.68;43.09
51031;BME280;37058;41.442;23.240;2023-04-06T09:18:49;100135.47;;;12.72;40.50
51031;BME280;37058;41.442;23.240;2023-04-06T09:21:19;100131.34;;;12.69;39.91
51031;BME280;37058;41.442;23.240;2023-04-06T09:23:45;100126.41;;;12.46;40.62
51031;BME280;37058;41.442;23.240;2023-04-06T09:26:17;100122.03;;;12.50;41.79
51031;BME280;37058;41.442;23.240;2023-04-06T09:28:52;100126.44;;;12.56;41.61
51031;BME280;37058;41.442;23.240;2023-04-06T09:31:29;100112.16;;;12.44;40.82
51031;BME280;37058;41.442;23.240;2023-04-06T09:33:56;100110.78;;;12.36;41.18
51031;BME280;37058;41.442;23.240;2023-04-06T09:36:34;100104.50;;;12.51;42.97
51031;BME280;37058;41.442;23.240;2023-04-06T09:39:04;100105.03;;;12.63;41.79
51031;BME280;37058;41.442;23.240;2023-04-06T09:41:35;100108.31;;;12.65;40.82
51031;BME280;37058;41.442;23.240;2023-04-06T09:44:12;100110.25;;;12.65;41.24
51031;BME280;37058;41.442;23.240;2023-04-06T09:46:42;100097.94;;;12.62;40.01
51031;BME280;37058;41.442;23.240;2023-04-06T09:49:10;100094.06;;;12.68;41.76
51031;BME280;37058;41.442;23.240;2023-04-06T09:51:40;100091.63;;;12.82;42.17
51031;BME280;37058;41.442;23.240;2023-04-06T09:54:08;100091.34;;;12.89;41.24
51031;BME280;37058;41.442;23.240;2023-04-06T10:02:28;100079.00;;;12.30;40.61
51031;BME280;37058;41.442;23.240;2023-04-06T10:05:08;100083.13;;;12.48;41.54
51031;BME280;37058;41.442;23.240;2023-04-06T10:07:36;100083.41;;;12.62;41.09
51031;BME280;37058;41.442;23.240;2023-04-06T10:10:03;100080.09;;;12.75;41.12
51031;BME280;37058;41.442;23.240;2023-04-06T10:12:29;100063.66;;;12.85;39.94
51031;BME280;37058;41.442;23.240;2023-04-06T10:14:56;100067.50;;;12.94;39.96
51031;BME280;37058;41.442;23.240;2023-04-06T10:17:22;100064.75;;;12.99;40.27
51031;BME280;37058;41.442;23.240;2023-04-06T10:20:17;100062.25;;;12.98;40.32
51031;BME280;37058;41.442;23.240;2023-04-06T10:23:36;100062.78;;;13.10;40.35
51031;BME280;37058;41.442;23.240;2023-04-06T10:26:05;100068.78;;;13.22;41.09
51031;BME280;37058;41.442;23.240;2023-04-06T10:28:33;100059.75;;;13.32;39.31
51031;BME280;37058;41.442;23.240;2023-04-06T10:31:04;100052.84;;;13.40;40.09
51031;BME280;37058;41.442;23.240;2023-04-06T10:33:31;100047.41;;;13.35;38.05
51031;BME280;37058;41.442;23.240;2023-04-06T10:35:57;100044.09;;;13.33;38.29
51031;BME280;37058;41.442;23.240;2023-04-06T10:38:40;100041.91;;;13.35;40.50
51031;BME280;37058;41.442;23.240;2023-04-06T10:41:11;100042.41;;;13.47;40.22
51031;BME280;37058;41.442;23.240;2023-04-06T10:43:40;100029.75;;;13.51;39.29
51031;BME280;37058;41.442;23.240;2023-04-06T10:46:08;100038.03;;;13.41;37.72
51031;BME280;37058;41.442;23.240;2023-04-06T10:48:44;100021.88;;;13.39;38.46
51031;BME280;37058;41.442;23.240;2023-04-06T10:51:18;100020.00;;;13.30;38.43
51031;BME280;37058;41.442;23.240;2023-04-06T10:53:46;100018.59;;;13.32;38.12
51031;BME280;37058;41.442;23.240;2023-04-06T10:56:17;100018.31;;;13.29;38.93
51031;BME280;37058;41.442;23.240;2023-04-06T10:58:51;100014.50;;;13.30;39.21
51031;BME280;37058;41.442;23.240;2023-04-06T11:01:20;100010.66;;;13.31;39.75
51031;BME280;37058;41.442;23.240;2023-04-06T11:03:55;100002.66;;;13.39;40.36
51031;BME280;37058;41.442;23.240;2023-04-06T11:06:26;99999.31;;;13.53;41.62
51031;BME280;37058;41.442;23.240;2023-04-06T11:08:54;100002.81;;;13.63;39.21
51031;BME280;37058;41.442;23.240;2023-04-06T11:11:22;99987.09;;;13.74;38.61
51031;BME280;37058;41.442;23.240;2023-04-06T11:13:58;99993.91;;;13.82;37.17
51031;BME280;37058;41.442;23.240;2023-04-06T11:16:31;99988.75;;;13.75;37.74
51031;BME280;37058;41.442;23.240;2023-04-06T11:19:00;99976.94;;;13.75;38.17
51031;BME280;37058;41.442;23.240;2023-04-06T11:21:47;99980.56;;;13.70;38.22
51031;BME280;37058;41.442;23.240;2023-04-06T11:24:23;99979.28;;;13.52;38.36
51031;BME280;37058;41.442;23.240;2023-04-06T11:26:55;99973.00;;;13.41;40.09
51031;BME280;37058;41.442;23.240;2023-04-06T11:29:26;99968.84;;;13.49;38.80
51031;BME280;37058;41.442;23.240;2023-04-06T11:31:58;99963.81;;;13.66;40.59
51031;BME280;37058;41.442;23.240;2023-04-06T11:34:25;99971.94;;;13.82;40.06
51031;BME280;37058;41.442;23.240;2023-04-06T11:36:59;99970.19;;;14.01;40.34
51031;BME280;37058;41.442;23.240;2023-04-06T11:39:28;99966.75;;;14.15;38.41
51031;BME280;37058;41.442;23.240;2023-04-06T11:42:01;99963.94;;;14.25;39.64
51031;BME280;37058;41.442;23.240;2023-04-06T11:44:40;99958.97;;;14.27;38.59
51031;BME280;37058;41.442;23.240;2023-04-06T11:47:08;99957.84;;;14.28;37.87
51031;BME280;37058;41.442;23.240;2023-04-06T11:49:40;99956.44;;;14.36;37.64
51031;BME280;37058;41.442;23.240;2023-04-06T11:52:24;99950.94;;;14.36;38.13
51031;BME280;37058;41.442;23.240;2023-04-06T11:54:53;99951.19;;;14.39;38.61
51031;BME280;37058;41.442;23.240;2023-04-06T11:57:21;99945.63;;;14.44;37.86
51031;BME280;37058;41.442;23.240;2023-04-06T11:59:51;99947.75;;;14.52;37.87
51031;BME280;37058;41.442;23.240;2023-04-06T12:02:17;99941.41;;;14.57;38.54
51031;BME280;37058;41.442;23.240;2023-04-06T12:04:44;99948.19;;;14.65;37.79
51031;BME280;37058;41.442;23.240;2023-04-06T12:07:10;99944.28;;;14.71;39.15
51031;BME280;37058;41.442;23.240;2023-04-06T12:09:36;99936.56;;;14.73;39.35
51031;BME280;37058;41.442;23.240;2023-04-06T12:12:03;99935.16;;;14.76;38.91
51031;BME280;37058;41.442;23.240;2023-04-06T12:14:29;99937.97;;;14.70;37.99
51031;BME280;37058;41.442;23.240;2023-04-06T12:16:57;99926.44;;;14.68;37.64
51031;BME280;37058;41.442;23.240;2023-04-06T12:19:23;99930.59;;;14.66;38.21
51031;BME280;37058;41.442;23.240;2023-04-06T12:21:54;99921.25;;;14.67;37.97
51031;BME280;37058;41.442;23.240;2023-04-06T12:24:20;99921.31;;;14.62;37.87
51031;BME280;37058;41.442;23.240;2023-04-06T12:26:46;99917.28;;;14.54;37.36
51031;BME280;37058;41.442;23.240;2023-04-06T12:29:12;99925.19;;;14.56;37.04
51031;BME280;37058;41.442;23.240;2023-04-06T12:31:39;99918.09;;;14.49;38.89
51031;BME280;37058;41.442;23.240;2023-04-06T12:34:06;99914.75;;;14.52;39.93
51031;BME280;37058;41.442;23.240;2023-04-06T12:36:33;99913.72;;;14.54;40.29
51031;BME280;37058;41.442;23.240;2023-04-06T12:38:59;99911.41;;;14.61;40.45
51031;BME280;37058;41.442;23.240;2023-04-06T12:41:27;99907.50;;;14.67;39.11
51031;BME280;37058;41.442;23.240;2023-04-06T12:43:53;99903.56;;;14.73;39.24
51031;BME280;37058;41.442;23.240;2023-04-06T12:46:19;99901.63;;;14.73;38.77
51031;BME280;37058;41.442;23.240;2023-04-06T12:48:46;99896.72;;;14.70;38.84
51031;BME280;37058;41.442;23.240;2023-04-06T12:51:12;99894.09;;;14.60;37.95